createdAt,value
2017-12-30T00:00:31.724Z,-0.80
2017-12-30T00:02:59.201Z,-0.81
2017-12-30T00:05:26.645Z,-0.82
2017-12-30T00:07:54.076Z,-0.81
2017-12-30T00:10:21.482Z,-0.81
2017-12-30T00:12:48.899Z,-0.77
2017-12-30T00:15:16.336Z,-0.76
2017-12-30T00:17:43.828Z,-0.75
2017-12-30T00:20:11.299Z,-0.78
2017-12-30T00:22:38.751Z,-0.80
2017-12-30T00:25:06.166Z,-0.90
2017-12-30T00:27:33.575Z,-0.89
2017-12-30T00:30:01.041Z,-0.93
2017-12-30T00:32:28.456Z,-0.96
2017-12-30T00:34:55.950Z,-0.98
2017-12-30T00:37:23.380Z,-1.00
2017-12-30T00:39:50.795Z,-0.99
2017-12-30T00:42:18.279Z,-1.01
2017-12-30T00:44:45.767Z,-1.09
2017-12-30T00:47:13.188Z,-1.08
2017-12-30T00:49:40.599Z,-1.10
2017-12-30T00:52:08.027Z,-1.08
2017-12-30T00:54:35.434Z,-1.10
2017-12-30T00:57:02.851Z,-1.09
2017-12-30T00:59:30.294Z,-1.11
2017-12-30T01:01:57.692Z,-1.14
2017-12-30T01:04:25.127Z,-1.16
2017-12-30T01:06:52.534Z,-1.15
2017-12-30T01:09:19.942Z,-1.11
2017-12-30T01:11:47.386Z,-1.13
2017-12-30T01:14:14.794Z,-1.12
2017-12-30T01:16:42.217Z,-1.12
2017-12-30T01:19:09.701Z,-1.11
2017-12-30T01:21:37.110Z,-1.09
2017-12-30T01:24:04.569Z,-1.11
2017-12-30T01:26:32.028Z,-1.09
2017-12-30T01:28:59.441Z,-1.10
2017-12-30T01:31:26.847Z,-1.07
2017-12-30T01:33:54.291Z,-1.04
2017-12-30T01:36:21.702Z,-1.03
2017-12-30T01:38:49.102Z,-1.02
2017-12-30T01:41:16.552Z,-1.01
2017-12-30T01:43:43.963Z,-1.00
2017-12-30T01:46:11.470Z,-1.00
2017-12-30T01:51:39.804Z,-1.02
2017-12-30T01:54:07.198Z,-0.99
2017-12-30T01:56:34.607Z,-0.97
2017-12-30T01:59:02.011Z,-0.94
2017-12-30T02:01:29.450Z,-0.92
2017-12-30T02:03:56.892Z,-0.88
2017-12-30T02:06:24.296Z,-0.85
2017-12-30T02:08:51.763Z,-0.82
2017-12-30T02:11:19.212Z,-0.79
2017-12-30T02:13:46.615Z,-0.77
2017-12-30T02:16:14.056Z,-0.77
2017-12-30T02:18:41.470Z,-0.73
2017-12-30T02:21:08.871Z,-0.66
2017-12-30T02:23:36.309Z,-0.61
2017-12-30T02:26:03.710Z,-0.59
2017-12-30T02:28:31.219Z,-0.60
2017-12-30T02:30:58.669Z,-0.63
2017-12-30T02:33:26.078Z,-0.62
2017-12-30T02:35:53.592Z,-0.61
2017-12-30T02:38:21.044Z,-0.61
2017-12-30T02:40:48.454Z,-0.60
2017-12-30T02:43:15.855Z,-0.58
2017-12-30T02:45:43.285Z,-0.63
2017-12-30T02:48:10.727Z,-0.62
2017-12-30T02:50:38.136Z,-0.61
2017-12-30T02:53:05.539Z,-0.60
2017-12-30T02:55:32.959Z,-0.59
2017-12-30T02:58:00.376Z,-0.59
2017-12-30T03:00:27.851Z,-0.55
2017-12-30T03:02:55.279Z,-0.55
2017-12-30T03:05:22.687Z,-0.56
2017-12-30T03:07:50.119Z,-0.61
2017-12-30T03:10:17.571Z,-0.60
2017-12-30T03:12:44.970Z,-0.56
2017-12-30T03:15:12.394Z,-0.54
2017-12-30T03:17:39.845Z,-0.58
2017-12-30T03:20:07.262Z,-0.59
2017-12-30T03:22:34.758Z,-0.55
2017-12-30T03:25:02.178Z,-0.53
2017-12-30T03:27:29.594Z,-0.56
2017-12-30T03:29:57.032Z,-0.55
2017-12-30T03:32:24.435Z,-0.51
2017-12-30T03:34:51.849Z,-0.44
2017-12-30T03:37:19.287Z,-0.34
2017-12-30T03:39:46.691Z,-0.32
2017-12-30T03:42:14.090Z,-0.30
2017-12-30T03:44:41.576Z,-0.26
2017-12-30T03:47:08.983Z,-0.27
2017-12-30T03:49:36.396Z,-0.27
2017-12-30T03:52:03.836Z,-0.29
2017-12-30T03:54:31.292Z,-0.35
2017-12-30T03:56:58.702Z,-0.34
2017-12-30T03:59:26.103Z,-0.33
2017-12-30T04:01:53.554Z,-0.27
2017-12-30T04:04:21.023Z,-0.22
2017-12-30T04:06:48.491Z,-0.19
2017-12-30T04:09:15.889Z,-0.18
2017-12-30T04:11:43.387Z,-0.28
2017-12-30T04:14:10.839Z,-0.34
2017-12-30T04:16:38.303Z,-0.32
2017-12-30T04:19:05.760Z,-0.32
2017-12-30T04:21:33.192Z,-0.26
2017-12-30T04:24:00.670Z,-0.26
2017-12-30T04:26:28.090Z,-0.22
2017-12-30T04:28:55.515Z,-0.21
2017-12-30T04:31:22.927Z,-0.13
2017-12-30T04:33:50.396Z,-0.09
2017-12-30T04:36:17.823Z,-0.16
2017-12-30T04:38:45.310Z,-0.15
2017-12-30T04:41:12.774Z,-0.12
2017-12-30T04:43:40.224Z,-0.05
2017-12-30T04:46:07.663Z,-0.03
2017-12-30T04:48:35.087Z,-0.02
2017-12-30T04:51:02.491Z,0.03
2017-12-30T04:53:29.908Z,0.04
2017-12-30T04:55:57.330Z,0.07
2017-12-30T04:58:24.758Z,0.08
2017-12-30T05:00:52.155Z,0.16
2017-12-30T05:03:19.592Z,0.16
2017-12-30T05:05:46.986Z,0.18
2017-12-30T05:08:14.393Z,0.19
2017-12-30T05:10:41.801Z,0.20
2017-12-30T05:13:09.309Z,0.20
2017-12-30T05:15:36.723Z,0.20
2017-12-30T05:18:04.202Z,0.19
2017-12-30T05:20:31.612Z,0.20
2017-12-30T05:22:59.021Z,0.20
2017-12-30T05:25:26.439Z,0.23
2017-12-30T05:27:53.839Z,0.28
2017-12-30T05:30:21.303Z,0.34
2017-12-30T05:32:48.707Z,0.32
2017-12-30T05:35:16.212Z,0.35
2017-12-30T05:37:43.656Z,0.36
2017-12-30T05:40:11.052Z,0.34
2017-12-30T05:42:38.461Z,0.38
2017-12-30T05:45:05.892Z,0.40
2017-12-30T05:47:33.302Z,0.41
2017-12-30T05:50:00.706Z,0.37
2017-12-30T05:52:28.120Z,0.34
2017-12-30T05:54:55.516Z,0.33
2017-12-30T05:57:22.931Z,0.38
2017-12-30T05:59:50.337Z,0.39
2017-12-30T06:02:17.834Z,0.41
2017-12-30T06:04:45.241Z,0.42
2017-12-30T06:07:12.738Z,0.44
2017-12-30T06:09:40.160Z,0.46
2017-12-30T06:12:07.651Z,0.49
2017-12-30T06:14:35.102Z,0.47
2017-12-30T06:17:02.517Z,0.52
2017-12-30T06:19:29.916Z,0.57
2017-12-30T06:21:57.340Z,0.66
2017-12-30T06:24:24.754Z,0.69
2017-12-30T06:26:52.146Z,0.65
2017-12-30T06:29:19.578Z,0.66
2017-12-30T06:31:47.010Z,0.72
2017-12-30T06:34:14.418Z,0.82
2017-12-30T06:36:41.905Z,0.81
2017-12-30T06:39:09.268Z,0.83
2017-12-30T06:41:36.661Z,0.91
2017-12-30T06:44:04.087Z,0.94
2017-12-30T06:46:31.492Z,0.96
2017-12-30T06:48:58.990Z,1.01
2017-12-30T06:51:26.448Z,1.04
2017-12-30T06:53:53.879Z,1.01
2017-12-30T06:56:21.283Z,0.95
2017-12-30T06:58:48.688Z,0.94
2017-12-30T07:01:16.166Z,0.96
2017-12-30T07:03:43.631Z,0.97
2017-12-30T07:06:11.065Z,1.02
2017-12-30T07:08:38.568Z,1.17
2017-12-30T07:11:05.963Z,1.26
2017-12-30T07:13:33.460Z,1.25
2017-12-30T07:16:00.887Z,1.13
2017-12-30T07:18:28.295Z,1.09
2017-12-30T07:20:55.705Z,1.10
2017-12-30T07:23:23.134Z,1.13
2017-12-30T07:25:50.547Z,1.11
2017-12-30T07:28:17.958Z,1.17
2017-12-30T07:30:45.366Z,1.26
2017-12-30T07:33:12.787Z,1.30
2017-12-30T07:35:40.215Z,1.32
2017-12-30T07:38:07.622Z,1.37
2017-12-30T07:40:35.039Z,1.41
2017-12-30T07:43:02.531Z,1.45
2017-12-30T07:45:29.930Z,1.47
2017-12-30T07:47:57.346Z,1.45
2017-12-30T07:50:24.787Z,1.44
2017-12-30T07:52:52.183Z,1.46
2017-12-30T07:55:19.616Z,1.49
2017-12-30T07:57:47.065Z,1.45
2017-12-30T08:00:14.471Z,1.49
2017-12-30T08:02:41.988Z,1.58
2017-12-30T08:05:09.445Z,1.57
2017-12-30T08:07:36.903Z,1.57
2017-12-30T08:10:04.322Z,1.61
2017-12-30T08:12:31.714Z,1.64
2017-12-30T08:14:59.179Z,1.68
2017-12-30T08:17:26.582Z,1.69
2017-12-30T08:19:53.988Z,1.76
2017-12-30T08:22:21.402Z,1.81
2017-12-30T08:24:48.798Z,1.88
2017-12-30T08:27:16.215Z,1.94
2017-12-30T08:29:43.703Z,2.02
2017-12-30T08:32:11.108Z,2.00
2017-12-30T08:34:38.625Z,2.06
2017-12-30T08:37:06.038Z,2.02
2017-12-30T08:39:33.447Z,2.04
2017-12-30T08:42:00.882Z,2.03
2017-12-30T08:44:28.310Z,2.13
2017-12-30T08:46:55.742Z,2.12
2017-12-30T08:49:23.142Z,2.12
2017-12-30T08:51:50.570Z,2.11
2017-12-30T08:54:18.067Z,2.15
2017-12-30T08:56:45.522Z,2.18
2017-12-30T08:59:13.073Z,2.24
2017-12-30T09:01:40.469Z,2.31
2017-12-30T09:04:07.863Z,2.25
2017-12-30T09:06:35.450Z,2.33
2017-12-30T09:09:02.851Z,2.39
2017-12-30T09:11:30.273Z,2.47
2017-12-30T09:13:57.823Z,2.50
2017-12-30T09:16:25.248Z,2.52
2017-12-30T09:18:52.638Z,2.56
2017-12-30T09:21:20.054Z,2.58
2017-12-30T09:23:47.478Z,2.61
2017-12-30T09:26:14.883Z,2.76
2017-12-30T09:28:42.282Z,2.85
2017-12-30T09:31:09.752Z,2.85
2017-12-30T09:33:37.150Z,2.87
2017-12-30T09:36:04.556Z,2.92
2017-12-30T09:38:31.983Z,2.84
2017-12-30T09:40:59.441Z,2.85
2017-12-30T09:43:26.902Z,2.88
2017-12-30T09:45:54.316Z,2.96
2017-12-30T09:48:21.763Z,2.94
2017-12-30T09:50:49.167Z,2.88
2017-12-30T09:53:16.570Z,2.91
2017-12-30T09:55:44.072Z,2.95
2017-12-30T09:58:11.466Z,2.90
2017-12-30T10:00:38.917Z,2.98
2017-12-30T10:03:06.342Z,3.01
2017-12-30T10:05:33.805Z,2.98
2017-12-30T10:08:01.267Z,3.05
2017-12-30T10:10:28.663Z,3.13
2017-12-30T10:12:56.066Z,3.23
2017-12-30T10:15:23.495Z,3.33
2017-12-30T10:17:50.900Z,3.42
2017-12-30T10:20:18.344Z,3.50
2017-12-30T10:22:45.757Z,3.59
2017-12-30T10:25:13.149Z,3.66
2017-12-30T10:27:40.571Z,3.62
2017-12-30T10:30:07.975Z,3.65
2017-12-30T10:32:35.433Z,3.68
2017-12-30T10:35:02.846Z,3.70
2017-12-30T10:37:30.343Z,3.81
2017-12-30T10:39:57.778Z,3.72
2017-12-30T10:42:25.182Z,3.70
2017-12-30T10:44:52.804Z,3.69
2017-12-30T10:47:20.216Z,3.75
2017-12-30T10:49:47.618Z,3.75
2017-12-30T10:52:15.087Z,3.73
2017-12-30T10:54:42.518Z,3.69
2017-12-30T10:57:09.919Z,3.67
2017-12-30T10:59:37.341Z,3.62
2017-12-30T11:02:04.820Z,3.66
2017-12-30T11:04:32.214Z,3.60
2017-12-30T11:06:59.618Z,3.61
2017-12-30T11:09:27.895Z,3.64
2017-12-30T11:11:55.299Z,3.66
2017-12-30T11:14:22.695Z,3.67
2017-12-30T11:16:50.106Z,3.73
2017-12-30T11:19:17.560Z,3.67
2017-12-30T11:21:44.912Z,3.64
2017-12-30T11:24:12.351Z,3.71
2017-12-30T11:26:39.792Z,3.74
2017-12-30T11:29:07.218Z,3.79
2017-12-30T11:31:34.628Z,3.79
2017-12-30T11:34:02.016Z,3.91
2017-12-30T11:36:29.563Z,4.25
2017-12-30T11:38:56.955Z,4.28
2017-12-30T11:41:24.365Z,4.18
2017-12-30T11:43:51.799Z,4.12
2017-12-30T11:46:19.338Z,4.01
2017-12-30T11:48:46.739Z,3.91
2017-12-30T11:51:14.141Z,3.81
2017-12-30T11:53:41.552Z,3.86
2017-12-30T11:56:09.063Z,3.94
2017-12-30T11:58:36.461Z,3.94
2017-12-30T12:01:03.874Z,4.00
2017-12-30T12:03:31.295Z,3.96
2017-12-30T12:05:58.701Z,3.91
2017-12-30T12:08:26.135Z,3.83
2017-12-30T12:10:53.598Z,3.88
2017-12-30T12:13:21.062Z,3.88
2017-12-30T12:15:48.460Z,3.84
2017-12-30T12:18:15.978Z,3.86
2017-12-30T12:20:43.375Z,3.91
2017-12-30T12:23:10.879Z,3.92
2017-12-30T12:25:38.298Z,3.87
2017-12-30T12:28:05.699Z,3.84
2017-12-30T12:30:33.103Z,3.86
2017-12-30T12:33:00.523Z,3.74
2017-12-30T12:35:27.967Z,3.74
2017-12-30T12:37:55.382Z,3.77
2017-12-30T12:40:22.875Z,3.73
2017-12-30T12:42:50.274Z,3.71
2017-12-30T12:45:17.690Z,3.69
2017-12-30T12:47:45.093Z,3.70
2017-12-30T12:50:12.502Z,3.69
2017-12-30T12:52:39.963Z,3.70
2017-12-30T12:55:07.358Z,3.79
2017-12-30T12:57:34.784Z,3.81
2017-12-30T13:00:02.197Z,3.84
2017-12-30T13:02:29.607Z,3.87
2017-12-30T13:04:57.023Z,3.93
2017-12-30T13:07:24.468Z,3.95
2017-12-30T13:09:51.874Z,4.03
2017-12-30T13:12:19.275Z,4.10
2017-12-30T13:14:46.870Z,4.08
2017-12-30T13:17:14.267Z,4.10
2017-12-30T13:19:41.684Z,4.09
2017-12-30T13:22:09.109Z,4.08
2017-12-30T13:24:36.510Z,4.07
2017-12-30T13:27:03.910Z,4.00
2017-12-30T13:29:31.338Z,3.99
2017-12-30T13:31:58.754Z,3.96
2017-12-30T13:34:26.213Z,3.97
2017-12-30T13:36:53.614Z,3.92
2017-12-30T13:39:21.030Z,3.91
2017-12-30T13:41:48.467Z,3.91
2017-12-30T13:44:15.872Z,3.97
2017-12-30T13:46:43.279Z,4.04
2017-12-30T13:49:10.723Z,4.03
2017-12-30T13:51:38.224Z,4.08
2017-12-30T13:54:05.624Z,4.05
2017-12-30T13:56:33.134Z,3.99
2017-12-30T13:59:00.535Z,3.95
2017-12-30T14:01:27.926Z,3.92
2017-12-30T14:03:55.371Z,3.94
2017-12-30T14:06:22.845Z,3.92
2017-12-30T14:08:50.311Z,3.89
2017-12-30T14:11:17.730Z,3.90
2017-12-30T14:13:45.139Z,3.93
2017-12-30T14:16:12.578Z,3.93
2017-12-30T14:18:39.996Z,3.99
2017-12-30T14:21:07.391Z,3.98
2017-12-30T14:23:34.851Z,3.94
2017-12-30T14:26:02.319Z,3.88
2017-12-30T14:28:29.747Z,3.76
2017-12-30T14:30:57.184Z,3.66
2017-12-30T14:33:24.583Z,3.52
2017-12-30T14:35:52.016Z,3.37
2017-12-30T14:38:19.455Z,3.29
2017-12-30T14:40:46.860Z,3.24
2017-12-30T14:43:14.275Z,3.17
2017-12-30T14:45:41.702Z,3.12
2017-12-30T14:48:09.111Z,3.07
2017-12-30T14:50:36.516Z,3.01
2017-12-30T14:53:03.942Z,2.97
2017-12-30T14:55:31.355Z,2.96
2017-12-30T14:57:58.758Z,2.94
2017-12-30T15:00:26.187Z,2.88
2017-12-30T15:02:53.599Z,2.85
2017-12-30T15:05:21.101Z,2.82
2017-12-30T15:07:48.706Z,2.80
2017-12-30T15:10:16.125Z,2.79
2017-12-30T15:12:43.598Z,2.71
2017-12-30T15:15:11.046Z,2.65
2017-12-30T15:17:38.465Z,2.60
2017-12-30T15:20:05.880Z,2.55
2017-12-30T15:22:33.308Z,2.47
2017-12-30T15:25:00.727Z,2.41
2017-12-30T15:27:28.149Z,2.37
2017-12-30T15:29:55.595Z,2.38
2017-12-30T15:32:23.006Z,2.40
2017-12-30T15:34:50.443Z,2.36
2017-12-30T15:37:17.846Z,2.35
2017-12-30T15:39:45.323Z,2.34
2017-12-30T15:42:12.859Z,2.39
2017-12-30T15:44:40.260Z,2.38
2017-12-30T15:47:07.777Z,2.41
2017-12-30T15:49:35.260Z,2.43
2017-12-30T15:52:02.671Z,2.49
2017-12-30T15:54:30.118Z,2.52
2017-12-30T15:56:57.535Z,2.54
2017-12-30T15:59:24.946Z,2.58
2017-12-30T16:01:52.383Z,2.58
2017-12-30T16:04:19.882Z,2.59
2017-12-30T16:06:47.318Z,2.64
2017-12-30T16:09:15.687Z,2.63
2017-12-30T16:11:43.119Z,2.61
2017-12-30T16:14:10.562Z,2.62
2017-12-30T16:16:37.966Z,2.68
2017-12-30T16:19:05.382Z,2.69
2017-12-30T16:21:32.794Z,2.66
2017-12-30T16:24:00.214Z,2.65
2017-12-30T16:26:27.722Z,2.64
2017-12-30T16:28:55.182Z,2.57
2017-12-30T16:31:22.841Z,2.58
2017-12-30T16:33:50.252Z,2.62
2017-12-30T16:36:17.694Z,2.68
2017-12-30T16:38:45.131Z,2.72
2017-12-30T16:41:12.553Z,2.73
2017-12-30T16:43:39.950Z,2.74
2017-12-30T16:46:07.597Z,2.79
2017-12-30T16:48:35.050Z,2.83
2017-12-30T16:51:02.471Z,2.80
2017-12-30T16:53:29.895Z,2.80
2017-12-30T16:55:57.311Z,2.83
2017-12-30T16:58:24.723Z,2.82
2017-12-30T17:00:52.193Z,2.86
2017-12-30T17:03:19.703Z,2.89
2017-12-30T17:05:47.111Z,2.94
2017-12-30T17:08:14.542Z,2.95
2017-12-30T17:10:41.954Z,2.99
2017-12-30T17:13:09.356Z,3.06
2017-12-30T17:15:36.787Z,3.13
2017-12-30T17:18:04.210Z,3.13
2017-12-30T17:20:31.617Z,3.17
2017-12-30T17:22:59.038Z,3.21
2017-12-30T17:25:26.466Z,3.24
2017-12-30T17:27:54.055Z,3.28
2017-12-30T17:30:21.630Z,3.36
2017-12-30T17:32:49.072Z,3.44
2017-12-30T17:35:16.487Z,3.50
2017-12-30T17:37:43.982Z,3.56
2017-12-30T17:40:11.727Z,3.61
2017-12-30T17:42:39.119Z,3.67
2017-12-30T17:45:06.531Z,3.72
2017-12-30T17:47:33.975Z,3.76
2017-12-30T17:50:01.491Z,3.79
2017-12-30T17:52:28.929Z,3.85
2017-12-30T17:54:56.341Z,3.89
2017-12-30T17:57:23.751Z,3.93
2017-12-30T17:59:51.260Z,3.96
2017-12-30T18:02:18.656Z,4.07
2017-12-30T18:04:46.064Z,4.24
2017-12-30T18:07:13.491Z,4.33
2017-12-30T18:09:40.894Z,4.34
2017-12-30T18:12:08.306Z,4.37
2017-12-30T18:14:35.876Z,4.40
2017-12-30T18:17:03.287Z,4.45
2017-12-30T18:19:30.701Z,4.49
2017-12-30T18:21:58.219Z,4.53
2017-12-30T18:24:25.649Z,4.57
2017-12-30T18:26:53.064Z,4.61
2017-12-30T18:29:20.475Z,4.66
2017-12-30T18:31:47.903Z,4.67
2017-12-30T18:34:15.317Z,4.66
2017-12-30T18:36:42.750Z,4.72
2017-12-30T18:39:10.203Z,4.77
2017-12-30T18:41:37.644Z,4.82
2017-12-30T18:44:05.071Z,4.87
2017-12-30T18:46:32.581Z,4.92
2017-12-30T18:49:00.144Z,4.97
2017-12-30T18:51:28.100Z,5.02
2017-12-30T18:53:55.978Z,5.05
2017-12-30T18:56:23.399Z,5.08
2017-12-30T18:58:50.816Z,5.08
2017-12-30T19:01:18.238Z,5.12
2017-12-30T19:03:45.726Z,5.15
2017-12-30T19:06:13.598Z,5.21
2017-12-30T19:08:41.028Z,5.28
2017-12-30T19:11:08.526Z,5.31
2017-12-30T19:13:35.962Z,5.37
2017-12-30T19:18:37.119Z,5.45
2017-12-30T19:21:04.573Z,5.44
2017-12-30T19:23:31.964Z,5.44
2017-12-30T19:25:59.384Z,5.48
2017-12-30T19:28:26.856Z,5.49
2017-12-30T19:30:54.271Z,5.49
2017-12-30T19:33:21.689Z,5.51
2017-12-30T19:35:49.171Z,5.48
2017-12-30T19:38:16.636Z,5.44
2017-12-30T19:40:44.047Z,5.45
2017-12-30T19:43:11.466Z,5.49
2017-12-30T19:45:38.901Z,5.51
2017-12-30T19:48:06.414Z,5.49
2017-12-30T19:50:33.810Z,5.49
2017-12-30T19:53:01.238Z,5.48
2017-12-30T19:55:28.654Z,5.50
2017-12-30T19:57:56.154Z,5.50
2017-12-30T20:00:23.582Z,5.56
2017-12-30T20:02:51.024Z,5.69
2017-12-30T20:05:18.429Z,5.83
2017-12-30T20:07:45.871Z,5.92
2017-12-30T20:10:13.305Z,6.01
2017-12-30T20:12:40.792Z,6.07
2017-12-30T20:15:08.319Z,6.13
2017-12-30T20:17:35.752Z,6.25
2017-12-30T20:20:03.226Z,6.25
2017-12-30T20:22:30.692Z,6.23
2017-12-30T20:24:58.112Z,6.24
2017-12-30T20:27:25.540Z,6.23
2017-12-30T20:29:53.005Z,6.21
2017-12-30T20:32:20.452Z,6.22
2017-12-30T20:34:47.863Z,6.30
2017-12-30T20:37:15.332Z,6.35
2017-12-30T20:39:42.838Z,6.34
2017-12-30T20:42:10.250Z,6.39
2017-12-30T20:44:37.669Z,6.41
2017-12-30T20:47:05.078Z,6.40
2017-12-30T20:49:32.491Z,6.47
2017-12-30T20:51:59.915Z,6.63
2017-12-30T20:54:27.362Z,6.74
2017-12-30T20:56:54.762Z,6.78
2017-12-30T20:59:22.179Z,6.78
2017-12-30T21:01:49.624Z,6.81
2017-12-30T21:04:17.027Z,6.85
2017-12-30T21:06:44.435Z,6.88
2017-12-30T21:09:11.859Z,6.89
2017-12-30T21:11:39.262Z,6.88
2017-12-30T21:14:06.679Z,6.90
2017-12-30T21:16:34.133Z,6.92
2017-12-30T21:19:01.555Z,6.94
2017-12-30T21:21:29.022Z,7.02
2017-12-30T21:23:56.426Z,7.06
2017-12-30T21:26:23.915Z,7.15
2017-12-30T21:28:51.652Z,7.26
2017-12-30T21:31:19.070Z,7.38
2017-12-30T21:33:46.499Z,7.44
2017-12-30T21:36:13.910Z,7.53
2017-12-30T21:38:41.339Z,7.49
2017-12-30T21:41:08.784Z,7.50
2017-12-30T21:43:36.192Z,7.53
2017-12-30T21:46:03.599Z,7.54
2017-12-30T21:48:31.058Z,7.56
2017-12-30T21:50:58.455Z,7.60
2017-12-30T21:53:25.905Z,7.62
2017-12-30T21:55:53.317Z,7.71
2017-12-30T21:58:20.759Z,7.77
2017-12-30T22:00:48.162Z,7.85
2017-12-30T22:03:15.571Z,7.86
2017-12-30T22:05:43.009Z,7.86
2017-12-30T22:08:10.414Z,7.85
2017-12-30T22:10:37.890Z,7.84
2017-12-30T22:13:05.342Z,7.86
2017-12-30T22:15:32.778Z,7.89
2017-12-30T22:18:00.174Z,7.92
2017-12-30T22:20:27.588Z,8.00
2017-12-30T22:22:55.078Z,8.05
2017-12-30T22:25:22.491Z,8.08
2017-12-30T22:27:49.986Z,8.08
2017-12-30T22:30:17.390Z,8.08
2017-12-30T22:32:44.798Z,8.10
2017-12-30T22:35:12.240Z,8.12
2017-12-30T22:37:39.639Z,8.14
2017-12-30T22:40:07.066Z,8.14
2017-12-30T22:42:34.479Z,8.17
2017-12-30T22:45:01.880Z,8.21
2017-12-30T22:47:29.286Z,8.27
2017-12-30T22:49:56.723Z,8.36
2017-12-30T22:52:24.144Z,8.38
2017-12-30T22:54:51.543Z,8.42
2017-12-30T22:57:18.991Z,8.44
2017-12-30T22:59:46.394Z,8.51
2017-12-30T23:02:14.027Z,8.56
2017-12-30T23:04:41.442Z,8.53
2017-12-30T23:07:08.977Z,8.59
2017-12-30T23:09:36.424Z,8.61
2017-12-30T23:12:03.831Z,8.60
2017-12-30T23:14:31.258Z,8.60
2017-12-30T23:16:58.711Z,8.64
2017-12-30T23:19:26.158Z,8.71
2017-12-30T23:21:53.583Z,8.74
2017-12-30T23:24:20.982Z,8.84
2017-12-30T23:26:48.419Z,8.94
2017-12-30T23:29:15.848Z,8.95
2017-12-30T23:31:43.342Z,8.98
2017-12-30T23:34:10.739Z,9.05
2017-12-30T23:36:38.184Z,9.07
2017-12-30T23:39:05.578Z,9.07
2017-12-30T23:41:33.003Z,9.06
2017-12-30T23:44:00.420Z,9.01
2017-12-30T23:46:27.821Z,8.97
2017-12-30T23:48:55.247Z,8.93
2017-12-30T23:51:22.658Z,8.96
2017-12-30T23:53:50.089Z,8.97
2017-12-30T23:56:17.482Z,9.00
2017-12-30T23:58:44.885Z,8.99
